sensor_id;sensor_type;location;lat;lon;timestamp;P1;durP1;ratioP1;P2;durP2;ratioP2
20505;SDS011;10411;48.148;7.704;2022-09-25T00:00:23;24.13;;;22.33;;
20505;SDS011;10411;48.148;7.704;2022-09-25T00:02:49;28.70;;;26.27;;
20505;SDS011;10411;48.148;7.704;2022-09-25T00:05:15;25.03;;;23.13;;
20505;SDS011;10411;48.148;7.704;2022-09-25T00:07:44;27.07;;;24.77;;
20505;SDS011;10411;48.148;7.704;2022-09-25T00:10:20;25.10;;;23.10;;
20505;SDS011;10411;48.148;7.704;2022-09-25T00:12:59;24.43;;;22.63;;
20505;SDS011;10411;48.148;7.704;2022-09-25T00:15:26;25.30;;;23.03;;
20505;SDS011;10411;48.148;7.704;2022-09-25T00:17:54;23.80;;;22.00;;
20505;SDS011;10411;48.148;7.704;2022-09-25T00:20:26;25.20;;;23.30;;
20505;SDS011;10411;48.148;7.704;2022-09-25T00:22:52;25.37;;;23.40;;
20505;SDS011;10411;48.148;7.704;2022-09-25T00:25:18;25.53;;;23.43;;
20505;SDS011;10411;48.148;7.704;2022-09-25T00:27:45;25.97;;;23.70;;
20505;SDS011;10411;48.148;7.704;2022-09-25T00:30:12;25.93;;;23.97;;
20505;SDS011;10411;48.148;7.704;2022-09-25T00:32:39;26.33;;;24.33;;
20505;SDS011;10411;48.148;7.704;2022-09-25T00:35:05;25.93;;;24.00;;
20505;SDS011;10411;48.148;7.704;2022-09-25T00:37:34;26.90;;;24.77;;
20505;SDS011;10411;48.148;7.704;2022-09-25T00:40:00;26.43;;;24.33;;
20505;SDS011;10411;48.148;7.704;2022-09-25T00:42:29;25.40;;;23.57;;
20505;SDS011;10411;48.148;7.704;2022-09-25T00:45:12;26.00;;;23.90;;
20505;SDS011;10411;48.148;7.704;2022-09-25T00:50:18;26.77;;;24.77;;
20505;SDS011;10411;48.148;7.704;2022-09-25T00:52:45;26.70;;;24.40;;
20505;SDS011;10411;48.148;7.704;2022-09-25T00:55:17;27.30;;;25.20;;
20505;SDS011;10411;48.148;7.704;2022-09-25T00:57:44;27.20;;;24.90;;
20505;SDS011;10411;48.148;7.704;2022-09-25T01:00:11;26.97;;;24.67;;
20505;SDS011;10411;48.148;7.704;2022-09-25T01:02:38;29.10;;;26.40;;
20505;SDS011;10411;48.148;7.704;2022-09-25T01:05:09;32.07;;;28.90;;
20505;SDS011;10411;48.148;7.704;2022-09-25T01:07:39;32.00;;;28.77;;
20505;SDS011;10411;48.148;7.704;2022-09-25T01:10:06;33.10;;;30.00;;
20505;SDS011;10411;48.148;7.704;2022-09-25T01:12:44;33.70;;;30.20;;
20505;SDS011;10411;48.148;7.704;2022-09-25T01:15:16;32.97;;;29.87;;
20505;SDS011;10411;48.148;7.704;2022-09-25T01:17:52;33.20;;;29.83;;
20505;SDS011;10411;48.148;7.704;2022-09-25T01:31:08;32.33;;;29.13;;
20505;SDS011;10411;48.148;7.704;2022-09-25T01:33:39;32.03;;;28.93;;
20505;SDS011;10411;48.148;7.704;2022-09-25T01:36:24;29.73;;;27.23;;
20505;SDS011;10411;48.148;7.704;2022-09-25T01:38:52;30.30;;;27.70;;
20505;SDS011;10411;48.148;7.704;2022-09-25T01:41:24;31.67;;;28.70;;
20505;SDS011;10411;48.148;7.704;2022-09-25T01:43:56;31.50;;;28.77;;
20505;SDS011;10411;48.148;7.704;2022-09-25T01:46:27;31.27;;;28.63;;
20505;SDS011;10411;48.148;7.704;2022-09-25T01:48:57;29.97;;;27.50;;
20505;SDS011;10411;48.148;7.704;2022-09-25T01:51:28;28.83;;;26.43;;
20505;SDS011;10411;48.148;7.704;2022-09-25T01:54:01;29.30;;;26.67;;
20505;SDS011;10411;48.148;7.704;2022-09-25T01:56:32;29.80;;;27.10;;
20505;SDS011;10411;48.148;7.704;2022-09-25T01:59:12;28.43;;;26.17;;
20505;SDS011;10411;48.148;7.704;2022-09-25T02:01:41;29.63;;;27.13;;
20505;SDS011;10411;48.148;7.704;2022-09-25T02:04:23;29.83;;;27.00;;
20505;SDS011;10411;48.148;7.704;2022-09-25T02:06:49;29.37;;;26.83;;
20505;SDS011;10411;48.148;7.704;2022-09-25T02:12:22;28.57;;;26.37;;
20505;SDS011;10411;48.148;7.704;2022-09-25T02:15:24;28.13;;;25.97;;
20505;SDS011;10411;48.148;7.704;2022-09-25T02:17:52;30.30;;;27.50;;
20505;SDS011;10411;48.148;7.704;2022-09-25T02:20:37;31.67;;;28.37;;
20505;SDS011;10411;48.148;7.704;2022-09-25T02:25:36;30.93;;;28.17;;
20505;SDS011;10411;48.148;7.704;2022-09-25T02:28:04;29.03;;;26.73;;
20505;SDS011;10411;48.148;7.704;2022-09-25T02:30:30;30.07;;;27.17;;
20505;SDS011;10411;48.148;7.704;2022-09-25T02:33:04;30.13;;;27.63;;
20505;SDS011;10411;48.148;7.704;2022-09-25T02:35:32;30.73;;;28.17;;
20505;SDS011;10411;48.148;7.704;2022-09-25T02:37:58;31.57;;;28.73;;
20505;SDS011;10411;48.148;7.704;2022-09-25T02:40:35;32.00;;;29.20;;
20505;SDS011;10411;48.148;7.704;2022-09-25T02:43:07;32.33;;;29.53;;
20505;SDS011;10411;48.148;7.704;2022-09-25T02:51:07;33.53;;;30.23;;
20505;SDS011;10411;48.148;7.704;2022-09-25T02:56:17;33.53;;;30.27;;
20505;SDS011;10411;48.148;7.704;2022-09-25T02:58:49;32.47;;;29.57;;
20505;SDS011;10411;48.148;7.704;2022-09-25T03:01:17;30.07;;;27.33;;
20505;SDS011;10411;48.148;7.704;2022-09-25T03:03:45;26.37;;;24.27;;
20505;SDS011;10411;48.148;7.704;2022-09-25T03:06:12;28.53;;;26.23;;
20505;SDS011;10411;48.148;7.704;2022-09-25T03:08:39;27.67;;;25.47;;
20505;SDS011;10411;48.148;7.704;2022-09-25T03:11:08;27.30;;;25.17;;
20505;SDS011;10411;48.148;7.704;2022-09-25T03:13:38;27.53;;;25.33;;
20505;SDS011;10411;48.148;7.704;2022-09-25T03:18:33;28.80;;;26.30;;
20505;SDS011;10411;48.148;7.704;2022-09-25T03:21:05;29.27;;;26.67;;
20505;SDS011;10411;48.148;7.704;2022-09-25T03:23:33;30.50;;;27.60;;
20505;SDS011;10411;48.148;7.704;2022-09-25T03:26:02;30.90;;;27.67;;
20505;SDS011;10411;48.148;7.704;2022-09-25T03:28:29;30.37;;;27.50;;
20505;SDS011;10411;48.148;7.704;2022-09-25T03:31:02;33.50;;;29.90;;
20505;SDS011;10411;48.148;7.704;2022-09-25T03:33:40;40.77;;;33.60;;
20505;SDS011;10411;48.148;7.704;2022-09-25T03:36:10;39.77;;;32.47;;
20505;SDS011;10411;48.148;7.704;2022-09-25T03:38:37;43.33;;;33.07;;
20505;SDS011;10411;48.148;7.704;2022-09-25T03:41:04;47.30;;;35.50;;
20505;SDS011;10411;48.148;7.704;2022-09-25T03:43:36;53.43;;;35.33;;
20505;SDS011;10411;48.148;7.704;2022-09-25T03:46:07;46.10;;;35.97;;
20505;SDS011;10411;48.148;7.704;2022-09-25T03:48:33;50.07;;;35.63;;
20505;SDS011;10411;48.148;7.704;2022-09-25T03:51:00;53.17;;;34.40;;
20505;SDS011;10411;48.148;7.704;2022-09-25T03:53:27;49.57;;;35.90;;
20505;SDS011;10411;48.148;7.704;2022-09-25T03:55:56;46.90;;;35.43;;
20505;SDS011;10411;48.148;7.704;2022-09-25T03:58:24;49.53;;;35.90;;
20505;SDS011;10411;48.148;7.704;2022-09-25T04:00:50;46.80;;;34.33;;
20505;SDS011;10411;48.148;7.704;2022-09-25T04:03:26;47.17;;;35.33;;
20505;SDS011;10411;48.148;7.704;2022-09-25T04:05:56;46.60;;;34.67;;
20505;SDS011;10411;48.148;7.704;2022-09-25T04:08:23;43.20;;;34.67;;
20505;SDS011;10411;48.148;7.704;2022-09-25T04:10:51;40.13;;;34.27;;
20505;SDS011;10411;48.148;7.704;2022-09-25T04:13:30;37.93;;;33.43;;
20505;SDS011;10411;48.148;7.704;2022-09-25T04:15:57;34.47;;;30.97;;
20505;SDS011;10411;48.148;7.704;2022-09-25T04:18:25;36.77;;;31.40;;
20505;SDS011;10411;48.148;7.704;2022-09-25T04:20:56;34.67;;;31.07;;
20505;SDS011;10411;48.148;7.704;2022-09-25T04:23:22;35.97;;;32.27;;
20505;SDS011;10411;48.148;7.704;2022-09-25T04:25:48;38.93;;;33.20;;
20505;SDS011;10411;48.148;7.704;2022-09-25T04:28:17;36.03;;;32.23;;
20505;SDS011;10411;48.148;7.704;2022-09-25T04:30:46;37.67;;;33.73;;
20505;SDS011;10411;48.148;7.704;2022-09-25T04:33:12;36.10;;;32.37;;
20505;SDS011;10411;48.148;7.704;2022-09-25T04:35:57;36.57;;;32.80;;
20505;SDS011;10411;48.148;7.704;2022-09-25T04:38:23;46.00;;;36.50;;
20505;SDS011;10411;48.148;7.704;2022-09-25T04:40:49;40.90;;;35.03;;
20505;SDS011;10411;48.148;7.704;2022-09-25T04:43:17;34.37;;;31.00;;
20505;SDS011;10411;48.148;7.704;2022-09-25T04:45:43;34.40;;;30.87;;
20505;SDS011;10411;48.148;7.704;2022-09-25T04:48:14;32.37;;;29.57;;
20505;SDS011;10411;48.148;7.704;2022-09-25T04:50:46;32.90;;;29.50;;
20505;SDS011;10411;48.148;7.704;2022-09-25T04:53:18;33.70;;;30.20;;
20505;SDS011;10411;48.148;7.704;2022-09-25T05:04:27;34.73;;;31.53;;
20505;SDS011;10411;48.148;7.704;2022-09-25T05:06:53;35.37;;;32.07;;
20505;SDS011;10411;48.148;7.704;2022-09-25T05:09:22;36.63;;;33.03;;
20505;SDS011;10411;48.148;7.704;2022-09-25T05:15:02;35.67;;;32.03;;
20505;SDS011;10411;48.148;7.704;2022-09-25T05:17:29;35.47;;;31.93;;
20505;SDS011;10411;48.148;7.704;2022-09-25T05:19:55;36.77;;;33.03;;
20505;SDS011;10411;48.148;7.704;2022-09-25T05:22:21;36.53;;;32.80;;
20505;SDS011;10411;48.148;7.704;2022-09-25T05:24:46;36.50;;;32.77;;
20505;SDS011;10411;48.148;7.704;2022-09-25T05:27:12;42.53;;;37.93;;
20505;SDS011;10411;48.148;7.704;2022-09-25T05:29:38;39.50;;;35.50;;
20505;SDS011;10411;48.148;7.704;2022-09-25T05:32:05;39.30;;;35.17;;
20505;SDS011;10411;48.148;7.704;2022-09-25T05:34:34;40.13;;;34.10;;
20505;SDS011;10411;48.148;7.704;2022-09-25T05:40:04;38.30;;;34.57;;
20505;SDS011;10411;48.148;7.704;2022-09-25T05:42:30;36.90;;;32.90;;
20505;SDS011;10411;48.148;7.704;2022-09-25T05:44:57;35.83;;;32.10;;
20505;SDS011;10411;48.148;7.704;2022-09-25T05:47:23;34.07;;;30.60;;
20505;SDS011;10411;48.148;7.704;2022-09-25T05:55:51;35.20;;;30.93;;
20505;SDS011;10411;48.148;7.704;2022-09-25T06:03:22;34.10;;;30.50;;
20505;SDS011;10411;48.148;7.704;2022-09-25T06:06:08;34.43;;;30.87;;
20505;SDS011;10411;48.148;7.704;2022-09-25T06:08:34;37.50;;;32.17;;
20505;SDS011;10411;48.148;7.704;2022-09-25T06:11:01;36.67;;;32.80;;
20505;SDS011;10411;48.148;7.704;2022-09-25T06:13:35;39.53;;;35.27;;
20505;SDS011;10411;48.148;7.704;2022-09-25T06:16:17;34.63;;;31.43;;
20505;SDS011;10411;48.148;7.704;2022-09-25T06:21:48;35.17;;;31.53;;
20505;SDS011;10411;48.148;7.704;2022-09-25T06:24:36;34.63;;;31.00;;
20505;SDS011;10411;48.148;7.704;2022-09-25T06:29:58;36.33;;;32.53;;
20505;SDS011;10411;48.148;7.704;2022-09-25T06:32:40;36.90;;;33.10;;
20505;SDS011;10411;48.148;7.704;2022-09-25T06:35:06;36.03;;;32.67;;
20505;SDS011;10411;48.148;7.704;2022-09-25T06:37:32;37.07;;;33.47;;
20505;SDS011;10411;48.148;7.704;2022-09-25T06:40:01;35.87;;;32.50;;
20505;SDS011;10411;48.148;7.704;2022-09-25T06:42:27;36.63;;;33.00;;
20505;SDS011;10411;48.148;7.704;2022-09-25T06:44:53;36.37;;;32.70;;
20505;SDS011;10411;48.148;7.704;2022-09-25T06:47:20;36.90;;;33.20;;
20505;SDS011;10411;48.148;7.704;2022-09-25T06:49:53;36.37;;;32.73;;
20505;SDS011;10411;48.148;7.704;2022-09-25T06:52:19;36.37;;;32.57;;
20505;SDS011;10411;48.148;7.704;2022-09-25T06:54:48;35.40;;;32.10;;
20505;SDS011;10411;48.148;7.704;2022-09-25T06:57:19;33.93;;;30.53;;
20505;SDS011;10411;48.148;7.704;2022-09-25T06:59:48;34.33;;;31.03;;
20505;SDS011;10411;48.148;7.704;2022-09-25T07:02:14;34.17;;;30.73;;
20505;SDS011;10411;48.148;7.704;2022-09-25T07:04:58;36.73;;;33.07;;
20505;SDS011;10411;48.148;7.704;2022-09-25T07:07:25;36.57;;;32.70;;
20505;SDS011;10411;48.148;7.704;2022-09-25T07:09:51;36.23;;;32.40;;
20505;SDS011;10411;48.148;7.704;2022-09-25T07:12:17;36.90;;;33.00;;
20505;SDS011;10411;48.148;7.704;2022-09-25T07:14:43;39.40;;;33.80;;
20505;SDS011;10411;48.148;7.704;2022-09-25T07:22:57;37.77;;;33.97;;
20505;SDS011;10411;48.148;7.704;2022-09-25T07:25:33;34.13;;;30.73;;
20505;SDS011;10411;48.148;7.704;2022-09-25T07:28:00;33.17;;;29.67;;
20505;SDS011;10411;48.148;7.704;2022-09-25T07:30:26;30.37;;;27.53;;
20505;SDS011;10411;48.148;7.704;2022-09-25T07:35:59;31.07;;;27.57;;
20505;SDS011;10411;48.148;7.704;2022-09-25T07:38:28;29.57;;;27.00;;
20505;SDS011;10411;48.148;7.704;2022-09-25T07:40:58;30.10;;;27.53;;
20505;SDS011;10411;48.148;7.704;2022-09-25T07:43:24;30.23;;;27.50;;
20505;SDS011;10411;48.148;7.704;2022-09-25T07:45:58;32.70;;;29.43;;
20505;SDS011;10411;48.148;7.704;2022-09-25T07:48:24;31.80;;;28.60;;
20505;SDS011;10411;48.148;7.704;2022-09-25T07:53:37;32.03;;;28.93;;
20505;SDS011;10411;48.148;7.704;2022-09-25T07:58:44;31.10;;;28.30;;
20505;SDS011;10411;48.148;7.704;2022-09-25T08:01:13;30.43;;;27.73;;
20505;SDS011;10411;48.148;7.704;2022-09-25T08:03:39;30.93;;;28.30;;
20505;SDS011;10411;48.148;7.704;2022-09-25T08:06:06;29.77;;;27.03;;
20505;SDS011;10411;48.148;7.704;2022-09-25T08:08:37;30.70;;;28.00;;
20505;SDS011;10411;48.148;7.704;2022-09-25T08:11:04;29.17;;;26.67;;
20505;SDS011;10411;48.148;7.704;2022-09-25T08:13:38;29.87;;;27.17;;
20505;SDS011;10411;48.148;7.704;2022-09-25T08:16:14;29.87;;;27.20;;
20505;SDS011;10411;48.148;7.704;2022-09-25T08:18:54;29.37;;;26.43;;
20505;SDS011;10411;48.148;7.704;2022-09-25T08:21:23;28.83;;;26.30;;
20505;SDS011;10411;48.148;7.704;2022-09-25T08:23:52;30.47;;;27.80;;
20505;SDS011;10411;48.148;7.704;2022-09-25T08:26:19;30.80;;;27.90;;
20505;SDS011;10411;48.148;7.704;2022-09-25T08:28:48;29.53;;;26.87;;
20505;SDS011;10411;48.148;7.704;2022-09-25T08:31:14;29.67;;;26.87;;
20505;SDS011;10411;48.148;7.704;2022-09-25T08:33:46;30.27;;;27.67;;
20505;SDS011;10411;48.148;7.704;2022-09-25T08:36:17;28.50;;;26.10;;
20505;SDS011;10411;48.148;7.704;2022-09-25T08:38:47;28.50;;;25.90;;
20505;SDS011;10411;48.148;7.704;2022-09-25T08:41:17;28.13;;;25.53;;
20505;SDS011;10411;48.148;7.704;2022-09-25T08:49:36;26.87;;;24.67;;
20505;SDS011;10411;48.148;7.704;2022-09-25T08:52:04;26.73;;;24.47;;
20505;SDS011;10411;48.148;7.704;2022-09-25T08:54:34;25.50;;;23.47;;
20505;SDS011;10411;48.148;7.704;2022-09-25T08:57:09;26.83;;;24.63;;
20505;SDS011;10411;48.148;7.704;2022-09-25T08:59:37;25.93;;;23.83;;
20505;SDS011;10411;48.148;7.704;2022-09-25T09:02:11;26.10;;;24.10;;
20505;SDS011;10411;48.148;7.704;2022-09-25T09:04:46;25.13;;;22.83;;
20505;SDS011;10411;48.148;7.704;2022-09-25T09:13:18;24.43;;;22.53;;
20505;SDS011;10411;48.148;7.704;2022-09-25T09:18:32;24.50;;;22.60;;
20505;SDS011;10411;48.148;7.704;2022-09-25T09:29:32;23.77;;;21.90;;
20505;SDS011;10411;48.148;7.704;2022-09-25T09:32:15;23.87;;;22.07;;
20505;SDS011;10411;48.148;7.704;2022-09-25T09:40:17;24.00;;;21.90;;
20505;SDS011;10411;48.148;7.704;2022-09-25T09:42:55;25.03;;;23.03;;
20505;SDS011;10411;48.148;7.704;2022-09-25T09:55:44;27.83;;;25.33;;
20505;SDS011;10411;48.148;7.704;2022-09-25T09:58:16;27.07;;;24.87;;
20505;SDS011;10411;48.148;7.704;2022-09-25T10:00:45;25.97;;;23.77;;
20505;SDS011;10411;48.148;7.704;2022-09-25T10:03:17;23.93;;;22.07;;
20505;SDS011;10411;48.148;7.704;2022-09-25T10:05:45;24.27;;;22.23;;
20505;SDS011;10411;48.148;7.704;2022-09-25T10:08:12;24.63;;;22.83;;
20505;SDS011;10411;48.148;7.704;2022-09-25T10:10:40;24.30;;;22.30;;
20505;SDS011;10411;48.148;7.704;2022-09-25T10:13:14;24.23;;;22.33;;
20505;SDS011;10411;48.148;7.704;2022-09-25T10:15:42;24.23;;;22.33;;
20505;SDS011;10411;48.148;7.704;2022-09-25T10:36:29;25.43;;;23.43;;
20505;SDS011;10411;48.148;7.704;2022-09-25T10:38:55;24.07;;;22.00;;
20505;SDS011;10411;48.148;7.704;2022-09-25T10:41:21;25.00;;;23.03;;
20505;SDS011;10411;48.148;7.704;2022-09-25T10:46:14;25.03;;;22.60;;
20505;SDS011;10411;48.148;7.704;2022-09-25T10:48:40;23.20;;;21.40;;
20505;SDS011;10411;48.148;7.704;2022-09-25T10:51:26;23.33;;;21.53;;
20505;SDS011;10411;48.148;7.704;2022-09-25T10:54:08;23.03;;;21.17;;
20505;SDS011;10411;48.148;7.704;2022-09-25T10:56:34;22.10;;;20.50;;
20505;SDS011;10411;48.148;7.704;2022-09-25T10:59:06;23.97;;;22.17;;
20505;SDS011;10411;48.148;7.704;2022-09-25T11:01:38;23.97;;;21.93;;
20505;SDS011;10411;48.148;7.704;2022-09-25T11:04:10;23.20;;;21.30;;
20505;SDS011;10411;48.148;7.704;2022-09-25T11:06:41;23.20;;;21.30;;
20505;SDS011;10411;48.148;7.704;2022-09-25T11:09:11;23.57;;;21.83;;
20505;SDS011;10411;48.148;7.704;2022-09-25T11:11:37;23.60;;;21.90;;
20505;SDS011;10411;48.148;7.704;2022-09-25T11:14:05;30.83;;;27.73;;
20505;SDS011;10411;48.148;7.704;2022-09-25T11:16:45;23.17;;;21.37;;
20505;SDS011;10411;48.148;7.704;2022-09-25T11:19:13;22.90;;;21.10;;
20505;SDS011;10411;48.148;7.704;2022-09-25T11:21:56;24.27;;;22.03;;
20505;SDS011;10411;48.148;7.704;2022-09-25T11:29:50;22.83;;;21.07;;
20505;SDS011;10411;48.148;7.704;2022-09-25T11:37:59;21.80;;;20.20;;
20505;SDS011;10411;48.148;7.704;2022-09-25T11:40:29;22.20;;;20.50;;
20505;SDS011;10411;48.148;7.704;2022-09-25T11:43:22;22.07;;;20.57;;
20505;SDS011;10411;48.148;7.704;2022-09-25T11:45:52;22.20;;;20.50;;
20505;SDS011;10411;48.148;7.704;2022-09-25T11:53:51;22.50;;;20.90;;
20505;SDS011;10411;48.148;7.704;2022-09-25T12:01:21;22.37;;;20.57;;
20505;SDS011;10411;48.148;7.704;2022-09-25T12:09:20;21.53;;;20.13;;
20505;SDS011;10411;48.148;7.704;2022-09-25T12:12:13;22.40;;;20.70;;
20505;SDS011;10411;48.148;7.704;2022-09-25T12:20:15;22.87;;;21.07;;
20505;SDS011;10411;48.148;7.704;2022-09-25T12:25:30;22.53;;;20.73;;
20505;SDS011;10411;48.148;7.704;2022-09-25T12:30:42;22.07;;;20.53;;
20505;SDS011;10411;48.148;7.704;2022-09-25T12:35:47;22.30;;;20.63;;
20505;SDS011;10411;48.148;7.704;2022-09-25T12:41:46;21.17;;;19.60;;
20505;SDS011;10411;48.148;7.704;2022-09-25T12:44:41;20.63;;;19.13;;
20505;SDS011;10411;48.148;7.704;2022-09-25T12:46:48;20.77;;;19.27;;
20505;SDS011;10411;48.148;7.704;2022-09-25T12:49:27;20.60;;;19.10;;
20505;SDS011;10411;48.148;7.704;2022-09-25T12:52:04;21.13;;;19.40;;
20505;SDS011;10411;48.148;7.704;2022-09-25T13:00:19;21.73;;;19.90;;
20505;SDS011;10411;48.148;7.704;2022-09-25T13:05:39;21.00;;;19.60;;
20505;SDS011;10411;48.148;7.704;2022-09-25T13:08:12;20.60;;;19.20;;
20505;SDS011;10411;48.148;7.704;2022-09-25T13:10:42;21.23;;;19.63;;
20505;SDS011;10411;48.148;7.704;2022-09-25T13:13:20;21.20;;;19.67;;
20505;SDS011;10411;48.148;7.704;2022-09-25T13:15:50;21.80;;;20.40;;
20505;SDS011;10411;48.148;7.704;2022-09-25T13:18:21;21.43;;;19.93;;
20505;SDS011;10411;48.148;7.704;2022-09-25T13:20:57;21.13;;;19.73;;
20505;SDS011;10411;48.148;7.704;2022-09-25T13:25:54;22.20;;;20.30;;
20505;SDS011;10411;48.148;7.704;2022-09-25T13:28:26;21.57;;;20.07;;
20505;SDS011;10411;48.148;7.704;2022-09-25T13:31:00;21.20;;;19.23;;
20505;SDS011;10411;48.148;7.704;2022-09-25T13:33:27;21.63;;;19.93;;
20505;SDS011;10411;48.148;7.704;2022-09-25T13:36:12;21.10;;;19.70;;
20505;SDS011;10411;48.148;7.704;2022-09-25T13:38:40;23.97;;;21.93;;
20505;SDS011;10411;48.148;7.704;2022-09-25T13:41:28;22.20;;;20.43;;
20505;SDS011;10411;48.148;7.704;2022-09-25T13:46:40;22.33;;;20.73;;
20505;SDS011;10411;48.148;7.704;2022-09-25T13:51:51;21.60;;;19.90;;
20505;SDS011;10411;48.148;7.704;2022-09-25T13:56:44;21.70;;;20.20;;
20505;SDS011;10411;48.148;7.704;2022-09-25T14:04:45;21.50;;;19.83;;
20505;SDS011;10411;48.148;7.704;2022-09-25T14:06:54;21.03;;;19.30;;
20505;SDS011;10411;48.148;7.704;2022-09-25T14:09:23;22.50;;;20.80;;
20505;SDS011;10411;48.148;7.704;2022-09-25T14:11:59;20.60;;;19.20;;
20505;SDS011;10411;48.148;7.704;2022-09-25T14:14:29;20.57;;;18.97;;
20505;SDS011;10411;48.148;7.704;2022-09-25T14:16:56;20.47;;;19.17;;
20505;SDS011;10411;48.148;7.704;2022-09-25T14:19:25;21.37;;;19.73;;
20505;SDS011;10411;48.148;7.704;2022-09-25T14:21:52;20.60;;;19.20;;
20505;SDS011;10411;48.148;7.704;2022-09-25T14:24:19;21.67;;;20.17;;
20505;SDS011;10411;48.148;7.704;2022-09-25T14:26:46;21.07;;;19.60;;
20505;SDS011;10411;48.148;7.704;2022-09-25T14:29:22;20.63;;;19.23;;
20505;SDS011;10411;48.148;7.704;2022-09-25T14:31:55;20.87;;;19.43;;
20505;SDS011;10411;48.148;7.704;2022-09-25T14:48:05;21.53;;;19.97;;
20505;SDS011;10411;48.148;7.704;2022-09-25T14:50:35;21.43;;;19.83;;
20505;SDS011;10411;48.148;7.704;2022-09-25T14:53:04;20.73;;;19.30;;
20505;SDS011;10411;48.148;7.704;2022-09-25T14:55:40;20.83;;;19.23;;
20505;SDS011;10411;48.148;7.704;2022-09-25T14:58:09;20.90;;;19.40;;
20505;SDS011;10411;48.148;7.704;2022-09-25T15:00:45;21.63;;;20.23;;
20505;SDS011;10411;48.148;7.704;2022-09-25T15:03:13;23.27;;;21.60;;
20505;SDS011;10411;48.148;7.704;2022-09-25T15:05:44;23.07;;;21.37;;
20505;SDS011;10411;48.148;7.704;2022-09-25T15:08:22;23.60;;;21.90;;
20505;SDS011;10411;48.148;7.704;2022-09-25T15:10:59;22.80;;;21.07;;
20505;SDS011;10411;48.148;7.704;2022-09-25T15:13:25;21.53;;;19.93;;
20505;SDS011;10411;48.148;7.704;2022-09-25T15:15:57;21.33;;;19.83;;
20505;SDS011;10411;48.148;7.704;2022-09-25T15:18:42;21.50;;;19.90;;
20505;SDS011;10411;48.148;7.704;2022-09-25T15:23:52;21.90;;;20.30;;
20505;SDS011;10411;48.148;7.704;2022-09-25T15:26:18;21.87;;;20.37;;
20505;SDS011;10411;48.148;7.704;2022-09-25T15:28:44;22.47;;;20.87;;
20505;SDS011;10411;48.148;7.704;2022-09-25T15:31:10;20.83;;;19.53;;
20505;SDS011;10411;48.148;7.704;2022-09-25T15:33:38;21.50;;;19.90;;
20505;SDS011;10411;48.148;7.704;2022-09-25T15:36:14;21.50;;;20.00;;
20505;SDS011;10411;48.148;7.704;2022-09-25T15:38:41;22.53;;;20.20;;
20505;SDS011;10411;48.148;7.704;2022-09-25T15:41:11;19.57;;;18.27;;
20505;SDS011;10411;48.148;7.704;2022-09-25T15:43:38;22.47;;;20.87;;
20505;SDS011;10411;48.148;7.704;2022-09-25T15:48:55;19.90;;;18.60;;
20505;SDS011;10411;48.148;7.704;2022-09-25T15:51:21;20.73;;;19.37;;
20505;SDS011;10411;48.148;7.704;2022-09-25T15:53:55;20.60;;;19.30;;
20505;SDS011;10411;48.148;7.704;2022-09-25T15:56:26;20.90;;;19.50;;
20505;SDS011;10411;48.148;7.704;2022-09-25T15:59:02;20.60;;;19.30;;
20505;SDS011;10411;48.148;7.704;2022-09-25T16:01:29;20.60;;;19.30;;
20505;SDS011;10411;48.148;7.704;2022-09-25T16:04:19;20.27;;;18.97;;
20505;SDS011;10411;48.148;7.704;2022-09-25T16:07:18;19.87;;;18.57;;
20505;SDS011;10411;48.148;7.704;2022-09-25T16:09:46;20.10;;;18.70;;
20505;SDS011;10411;48.148;7.704;2022-09-25T16:14:51;20.50;;;18.93;;
20505;SDS011;10411;48.148;7.704;2022-09-25T16:17:32;20.70;;;19.20;;
20505;SDS011;10411;48.148;7.704;2022-09-25T16:20:45;20.43;;;19.13;;
20505;SDS011;10411;48.148;7.704;2022-09-25T16:22:55;20.37;;;18.93;;
20505;SDS011;10411;48.148;7.704;2022-09-25T16:25:22;20.83;;;19.27;;
20505;SDS011;10411;48.148;7.704;2022-09-25T16:27:50;20.60;;;19.27;;
20505;SDS011;10411;48.148;7.704;2022-09-25T16:30:20;19.83;;;18.53;;
20505;SDS011;10411;48.148;7.704;2022-09-25T16:32:48;21.07;;;19.60;;
20505;SDS011;10411;48.148;7.704;2022-09-25T16:35:22;20.40;;;19.00;;
20505;SDS011;10411;48.148;7.704;2022-09-25T16:37:49;20.83;;;19.33;;
20505;SDS011;10411;48.148;7.704;2022-09-25T16:40:20;21.10;;;19.77;;
20505;SDS011;10411;48.148;7.704;2022-09-25T16:42:52;21.27;;;19.53;;
20505;SDS011;10411;48.148;7.704;2022-09-25T16:45:22;18.23;;;17.13;;
20505;SDS011;10411;48.148;7.704;2022-09-25T16:47:50;19.13;;;17.93;;
20505;SDS011;10411;48.148;7.704;2022-09-25T16:50:16;19.60;;;18.30;;
20505;SDS011;10411;48.148;7.704;2022-09-25T16:52:43;20.33;;;18.83;;
20505;SDS011;10411;48.148;7.704;2022-09-25T16:55:14;19.20;;;17.90;;
20505;SDS011;10411;48.148;7.704;2022-09-25T16:57:40;20.20;;;19.00;;
20505;SDS011;10411;48.148;7.704;2022-09-25T17:00:09;19.43;;;18.23;;
20505;SDS011;10411;48.148;7.704;2022-09-25T17:02:41;19.90;;;18.60;;
20505;SDS011;10411;48.148;7.704;2022-09-25T17:05:10;19.30;;;18.20;;
20505;SDS011;10411;48.148;7.704;2022-09-25T17:07:41;19.77;;;18.50;;
20505;SDS011;10411;48.148;7.704;2022-09-25T17:10:10;21.00;;;19.57;;
20505;SDS011;10411;48.148;7.704;2022-09-25T17:12:39;21.27;;;19.97;;
20505;SDS011;10411;48.148;7.704;2022-09-25T17:15:06;20.97;;;19.53;;
20505;SDS011;10411;48.148;7.704;2022-09-25T17:17:32;27.13;;;24.83;;
20505;SDS011;10411;48.148;7.704;2022-09-25T17:19:58;20.97;;;19.60;;
20505;SDS011;10411;48.148;7.704;2022-09-25T17:22:24;20.40;;;19.17;;
20505;SDS011;10411;48.148;7.704;2022-09-25T17:24:54;21.37;;;19.80;;
20505;SDS011;10411;48.148;7.704;2022-09-25T17:27:22;20.17;;;18.87;;
20505;SDS011;10411;48.148;7.704;2022-09-25T17:29:48;19.80;;;18.50;;
20505;SDS011;10411;48.148;7.704;2022-09-25T17:32:15;21.73;;;19.90;;
20505;SDS011;10411;48.148;7.704;2022-09-25T17:34:42;21.50;;;19.93;;
20505;SDS011;10411;48.148;7.704;2022-09-25T17:37:10;22.13;;;20.53;;
20505;SDS011;10411;48.148;7.704;2022-09-25T17:39:37;26.53;;;24.53;;
20505;SDS011;10411;48.148;7.704;2022-09-25T17:42:03;28.57;;;25.77;;
20505;SDS011;10411;48.148;7.704;2022-09-25T17:44:29;24.87;;;22.63;;
20505;SDS011;10411;48.148;7.704;2022-09-25T17:46:55;20.73;;;19.30;;
20505;SDS011;10411;48.148;7.704;2022-09-25T17:49:21;19.47;;;18.10;;
20505;SDS011;10411;48.148;7.704;2022-09-25T17:51:49;19.70;;;18.50;;
20505;SDS011;10411;48.148;7.704;2022-09-25T17:54:15;20.60;;;19.10;;
20505;SDS011;10411;48.148;7.704;2022-09-25T17:56:41;19.23;;;18.03;;
20505;SDS011;10411;48.148;7.704;2022-09-25T17:59:09;19.60;;;18.40;;
20505;SDS011;10411;48.148;7.704;2022-09-25T18:01:35;19.80;;;18.60;;
20505;SDS011;10411;48.148;7.704;2022-09-25T18:04:08;19.37;;;18.17;;
20505;SDS011;10411;48.148;7.704;2022-09-25T18:06:37;19.00;;;17.90;;
20505;SDS011;10411;48.148;7.704;2022-09-25T18:09:07;19.90;;;18.70;;
20505;SDS011;10411;48.148;7.704;2022-09-25T18:11:36;18.60;;;17.50;;
20505;SDS011;10411;48.148;7.704;2022-09-25T18:14:07;18.13;;;17.03;;
20505;SDS011;10411;48.148;7.704;2022-09-25T18:16:35;19.80;;;18.70;;
20505;SDS011;10411;48.148;7.704;2022-09-25T18:19:01;18.90;;;17.80;;
20505;SDS011;10411;48.148;7.704;2022-09-25T18:21:45;18.63;;;17.53;;
20505;SDS011;10411;48.148;7.704;2022-09-25T18:24:30;19.97;;;18.77;;